Time;durP1;ratioP1;P1;durP2;ratioP2;P2;SDS_P1;SDS_P2;PMS_P1;PMS_P2;Temp;Humidity;BMP_temperature;BMP_pressure;BME280_temperature;BME280_humidity;BME280_pressure;Samples;Min_cycle;Max_cycle;Signal;HPM_P1;HPM_P2
2022/08/16 00:01:56;;;;;;;6.90;4.55;;;;;;;26.70;47.64;99039.88;4119870;28;20325;-63
2022/08/16 00:04:00;;;;;;;5.07;4.45;;;;;;;25.67;49.63;99037.59;4120865;28;20249;-63
2022/08/16 00:06:05;;;;;;;5.38;4.88;;;;;;;26.39;48.39;99033.78;4123859;28;20249;-63
2022/08/16 00:08:07;;;;;;;6.28;4.90;;;;;;;26.21;48.64;99032.50;4126956;28;20316;-63
2022/08/16 00:10:32;;;;;;;5.53;4.57;;;;;;;26.65;47.44;99037.16;4118629;28;20268;-64
2022/08/16 00:12:34;;;;;;;6.78;4.70;;;;;;;26.78;47.44;99030.28;4124787;28;20293;-63
2022/08/16 00:14:35;;;;;;;6.97;5.00;;;;;;;26.75;47.64;99044.47;4128241;28;20245;-63
2022/08/16 00:16:38;;;;;;;5.53;4.90;;;;;;;26.57;47.91;99049.50;4119481;28;20239;-63
2022/08/16 00:19:00;;;;;;;5.55;4.88;;;;;;;26.77;47.27;99037.63;4124490;28;20250;-63
2022/08/16 00:21:03;;;;;;;5.85;4.88;;;;;;;26.66;47.84;99038.81;4117906;28;20253;-63
2022/08/16 00:23:05;;;;;;;6.30;4.93;;;;;;;26.62;47.98;99041.28;4118945;28;20241;-63
2022/08/16 00:25:15;;;;;;;6.78;4.65;;;;;;;26.78;47.34;99043.91;4120647;28;20321;-64
2022/08/16 00:27:17;;;;;;;7.25;5.15;;;;;;;26.69;47.88;99039.06;4122932;28;20234;-64
2022/08/16 00:29:19;;;;;;;6.03;5.07;;;;;;;26.77;47.71;99043.06;4119163;28;20229;-63
2022/08/16 00:31:21;;;;;;;7.25;5.35;;;;;;;26.63;47.88;99048.34;4116985;28;20628;-63
2022/08/16 00:33:24;;;;;;;6.95;5.50;;;;;;;26.78;47.43;99044.72;4121134;28;20270;-62
2022/08/16 00:35:29;;;;;;;6.25;5.65;;;;;;;26.65;47.47;99045.34;4127627;28;20245;-63
2022/08/16 00:37:35;;;;;;;8.20;5.68;;;;;;;26.39;48.05;99033.78;4122416;28;20230;-63
2022/08/16 00:39:56;;;;;;;6.82;5.22;;;;;;;26.83;47.06;99024.78;4122871;28;20322;-63
2022/08/16 00:41:59;;;;;;;8.02;4.90;;;;;;;26.47;48.02;99030.44;4121383;28;20239;-64
2022/08/16 00:44:09;;;;;;;7.82;5.18;;;;;;;26.65;47.92;99026.25;4112869;28;20238;-63
2022/08/16 00:46:29;;;;;;;7.82;5.78;;;;;;;26.83;47.57;99022.84;4127420;28;20731;-64
2022/08/16 00:48:37;;;;;;;6.07;5.07;;;;;;;26.53;47.89;99032.06;4119098;28;20262;-63
2022/08/16 00:50:45;;;;;;;7.50;4.90;;;;;;;26.37;48.44;99035.94;4120990;28;20660;-63
2022/08/16 00:52:47;;;;;;;5.30;4.80;;;;;;;26.75;47.47;99028.09;4113273;28;20233;-62
2022/08/16 00:54:52;;;;;;;8.02;5.78;;;;;;;26.52;48.06;99033.16;4118876;28;20240;-63
2022/08/16 00:56:56;;;;;;;6.75;5.07;;;;;;;26.13;48.99;99037.47;4123334;28;20320;-62
2022/08/16 00:59:01;;;;;;;7.15;5.38;;;;;;;26.44;47.91;99037.28;4120994;28;20240;-63
2022/08/16 01:01:05;;;;;;;7.20;5.18;;;;;;;26.10;48.81;99038.00;4107427;28;20291;-63
2022/08/16 01:03:13;;;;;;;8.55;5.05;;;;;;;26.41;48.58;99032.38;4115953;28;20244;-63
2022/08/16 01:05:15;;;;;;;6.55;4.97;;;;;;;25.58;50.27;99029.19;4119980;28;20238;-63
2022/08/16 01:07:18;;;;;;;6.22;4.85;;;;;;;26.04;49.44;99032.88;4118169;28;20234;-63
2022/08/16 01:09:21;;;;;;;7.55;5.22;;;;;;;26.43;48.35;99021.22;4125402;28;20237;-63
2022/08/16 01:11:24;;;;;;;5.63;5.13;;;;;;;26.61;48.33;99033.41;4120406;28;20729;-63
2022/08/16 01:13:30;;;;;;;7.55;5.55;;;;;;;25.60;50.07;99039.78;4121764;28;20253;-62
2022/08/16 01:15:34;;;;;;;8.40;5.80;;;;;;;26.44;48.38;99029.09;4121287;28;20262;-63
2022/08/16 01:17:37;;;;;;;7.25;5.38;;;;;;;25.22;51.23;99045.56;4122935;28;20237;-63
2022/08/16 01:19:51;;;;;;;7.82;4.97;;;;;;;25.32;51.05;99033.00;4122438;28;20314;-64
2022/08/16 01:22:02;;;;;;;8.80;5.90;;;;;;;25.60;50.47;99031.63;4116299;28;20737;-65
2022/08/16 01:24:40;;;;;;;7.50;5.80;;;;;;;25.31;51.02;99032.22;4120484;28;20269;-63
2022/08/16 01:27:14;;;;;;;7.95;5.70;;;;;;;26.18;49.01;99022.16;4117009;28;20238;-62
2022/08/16 01:29:25;;;;;;;7.82;5.75;;;;;;;26.61;48.21;99025.22;4114698;28;20317;-63
2022/08/16 01:31:48;;;;;;;7.05;5.63;;;;;;;26.32;48.55;99039.53;4119972;28;20322;-64
2022/08/16 01:33:52;;;;;;;6.35;5.68;;;;;;;26.70;47.77;99035.22;4116640;28;20260;-62
2022/08/16 01:36:00;;;;;;;5.75;5.15;;;;;;;26.84;47.87;99046.31;4119624;28;20320;-63
2022/08/16 01:38:20;;;;;;;7.55;5.45;;;;;;;26.46;48.69;99047.91;4119395;28;20234;-62
2022/08/16 01:40:29;;;;;;;6.80;5.60;;;;;;;26.87;47.44;99042.19;4121407;28;20240;-63
2022/08/16 01:42:31;;;;;;;7.10;6.40;;;;;;;26.77;47.55;99047.72;4123518;28;20234;-64
2022/08/16 01:44:36;;;;;;;6.28;5.68;;;;;;;27.06;47.14;99047.78;4119225;28;20240;-63
2022/08/16 01:46:45;;;;;;;6.63;5.05;;;;;;;24.41;52.14;99055.25;4122148;28;20242;-63
2022/08/16 01:48:48;;;;;;;7.53;6.13;;;;;;;24.44;53.26;99026.72;4118704;28;20229;-63
2022/08/16 01:50:50;;;;;;;6.28;5.18;;;;;;;23.69;54.60;99024.25;4118909;28;20235;-64
2022/08/16 01:53:12;;;;;;;6.00;5.40;;;;;;;25.01;51.48;99025.69;4126553;28;20261;-63
2022/08/16 01:55:17;;;;;;;8.13;5.43;;;;;;;26.16;49.49;99011.56;4128247;28;21119;-63
2022/08/16 01:57:18;;;;;;;8.32;5.07;;;;;;;25.13;51.54;99030.06;4119303;28;20296;-63
2022/08/16 01:59:27;;;;;;;6.72;5.45;;;;;;;25.77;50.37;99034.84;4118078;28;20611;-63
2022/08/16 02:01:29;;;;;;;7.73;5.70;;;;;;;26.76;47.92;99038.75;4118741;28;20722;-63
2022/08/16 02:03:32;;;;;;;8.52;5.28;;;;;;;26.96;47.53;99031.47;4116644;28;20335;-64
2022/08/16 02:05:34;;;;;;;7.47;6.00;;;;;;;26.73;48.30;99033.84;4123748;28;21775;-63
2022/08/16 02:07:37;;;;;;;6.45;5.85;;;;;;;25.71;50.12;99041.41;4125774;28;20233;-62
2022/08/16 02:09:47;;;;;;;7.53;5.85;;;;;;;26.61;48.27;99036.13;4115009;28;20262;-63
2022/08/16 02:12:00;;;;;;;6.95;5.88;;;;;;;26.80;48.13;99036.25;4121634;28;20234;-63
2022/08/16 02:14:25;;;;;;;8.40;5.93;;;;;;;26.62;48.23;99045.91;4113500;28;20250;-63
2022/08/16 02:16:28;;;;;;;8.02;6.13;;;;;;;26.84;47.99;99038.13;4124206;28;20237;-63
2022/08/16 02:18:29;;;;;;;6.22;5.47;;;;;;;26.68;48.17;99044.78;4125947;28;20787;-64
2022/08/16 02:20:37;;;;;;;7.85;5.53;;;;;;;26.72;48.11;99043.09;4121475;28;20238;-63
2022/08/16 02:22:43;;;;;;;8.93;6.25;;;;;;;26.66;48.20;99045.06;4118415;28;20256;-63
2022/08/16 02:24:48;;;;;;;6.13;5.53;;;;;;;26.30;49.16;99042.53;4118599;28;20317;-63
2022/08/16 02:26:50;;;;;;;6.38;5.63;;;;;;;26.64;48.09;99040.97;4123610;28;20245;-63
2022/08/16 02:28:52;;;;;;;6.90;6.03;;;;;;;25.52;50.91;99032.19;4116559;28;20234;-63
2022/08/16 02:30:58;;;;;;;6.32;5.60;;;;;;;25.87;49.87;99030.47;4118479;28;20281;-63
2022/08/16 02:33:01;;;;;;;6.60;5.47;;;;;;;26.73;48.47;99028.38;4116427;28;20249;-63
2022/08/16 02:35:05;;;;;;;6.13;5.13;;;;;;;26.43;49.17;99018.47;4124317;28;20238;-62
2022/08/16 02:37:10;;;;;;;7.50;5.72;;;;;;;26.90;47.72;99019.81;4125268;28;20837;-62
2022/08/16 02:39:13;;;;;;;5.93;5.32;;;;;;;25.44;51.05;99025.41;4119925;28;20237;-63
2022/08/16 02:41:15;;;;;;;7.05;5.85;;;;;;;24.99;51.99;99006.13;4112524;28;20296;-63
2022/08/16 02:43:18;;;;;;;5.95;5.35;;;;;;;26.31;48.94;99010.66;4121051;28;20674;-63
2022/08/16 02:45:23;;;;;;;7.45;5.68;;;;;;;26.85;48.41;99004.28;4121108;28;20944;-63
2022/08/16 02:47:28;;;;;;;6.65;5.60;;;;;;;25.21;51.33;99024.06;4122015;28;21012;-64
2022/08/16 02:49:30;;;;;;;7.03;5.78;;;;;;;26.08;49.60;99012.97;4118837;28;20658;-63
2022/08/16 02:51:51;;;;;;;7.93;6.00;;;;;;;27.01;47.81;99017.78;4121720;28;20337;-62
2022/08/16 02:53:56;;;;;;;7.82;6.32;;;;;;;26.81;48.40;99022.34;4116312;28;20242;-62
2022/08/16 02:55:57;;;;;;;6.53;5.93;;;;;;;27.28;47.28;99006.41;4122098;28;20238;-63
2022/08/16 02:58:00;;;;;;;8.80;6.03;;;;;;;26.87;47.63;99023.91;4123108;28;20835;-63
2022/08/16 03:00:08;;;;;;;8.50;6.00;;;;;;;26.75;48.19;99014.47;4121747;28;20292;-63
2022/08/16 03:02:30;;;;;;;6.97;6.15;;;;;;;27.51;46.77;99006.69;4125177;28;20287;-63
2022/08/16 03:04:33;;;;;;;9.93;5.68;;;;;;;27.10;47.27;99009.84;4125032;28;20245;-63
2022/08/16 03:06:53;;;;;;;7.93;6.10;;;;;;;26.91;47.61;99015.97;4120814;28;21497;-63
2022/08/16 03:08:57;;;;;;;7.38;5.78;;;;;;;27.41;46.86;99004.88;4127336;28;20749;-62
2022/08/16 03:11:01;;;;;;;8.48;5.93;;;;;;;27.19;47.41;99005.38;4118837;28;20233;-64
2022/08/16 03:13:04;;;;;;;8.05;6.10;;;;;;;27.17;47.21;99002.94;4120148;28;20230;-62
2022/08/16 03:15:14;;;;;;;8.45;6.30;;;;;;;25.99;50.23;99011.91;4118177;28;20237;-63
2022/08/16 03:17:18;;;;;;;10.57;6.28;;;;;;;26.87;48.36;99001.28;4126816;28;20312;-63
2022/08/16 03:19:22;;;;;;;7.15;5.97;;;;;;;25.91;50.02;99007.00;4121415;28;20763;-64
2022/08/16 03:21:24;;;;;;;6.97;6.28;;;;;;;26.60;48.50;98988.13;4113692;28;20242;-63
2022/08/16 03:23:27;;;;;;;8.60;6.13;;;;;;;26.47;48.61;99005.91;4121629;28;20233;-62
2022/08/16 03:25:37;;;;;;;7.30;6.60;;;;;;;26.21;50.03;98994.38;4122297;28;20797;-62
2022/08/16 03:27:45;;;;;;;8.60;6.47;;;;;;;26.54;49.00;98984.66;4114783;28;20474;-63
2022/08/16 03:29:47;;;;;;;8.52;7.18;;;;;;;26.14;49.65;98995.47;4119382;28;20230;-63
2022/08/16 03:31:55;;;;;;;8.38;7.47;;;;;;;26.66;48.50;99000.63;4121886;28;20264;-62
2022/08/16 03:33:59;;;;;;;10.80;7.88;;;;;;;26.63;48.58;98991.09;4116115;28;20264;-63
2022/08/16 03:36:02;;;;;;;9.23;7.72;;;;;;;26.60;48.98;98999.03;4124032;28;20758;-62
2022/08/16 03:38:25;;;;;;;8.73;7.57;;;;;;;26.32;49.47;98998.66;4113050;28;20230;-63
2022/08/16 03:40:36;;;;;;;9.63;7.68;;;;;;;26.49;49.21;98985.47;4121344;28;20237;-63
2022/08/16 03:42:38;;;;;;;9.32;7.78;;;;;;;26.16;50.12;98998.72;4121773;28;20319;-63
2022/08/16 03:45:00;;;;;;;9.60;7.57;;;;;;;26.37;49.66;98997.81;4124775;28;20276;-64
2022/08/16 03:47:04;;;;;;;11.43;8.70;;;;;;;26.06;50.04;98993.34;4125705;28;20304;-65
2022/08/16 03:49:11;;;;;;;9.75;7.50;;;;;;;26.52;49.38;98987.66;4126870;28;21014;-64
2022/08/16 03:51:14;;;;;;;9.82;8.52;;;;;;;26.09;50.24;98994.72;4111824;28;20289;-65
2022/08/16 03:53:15;;;;;;;12.27;8.50;;;;;;;26.51;49.36;98986.00;4122179;28;20240;-64
2022/08/16 03:55:17;;;;;;;9.05;8.15;;;;;;;26.23;49.42;98992.16;4122314;28;20230;-64
2022/08/16 03:57:20;;;;;;;12.40;9.27;;;;;;;26.50;49.48;98992.59;4117372;28;20864;-65
2022/08/16 03:59:23;;;;;;;10.10;8.70;;;;;;;26.59;49.43;98990.06;4115969;28;20230;-65
2022/08/16 04:01:25;;;;;;;10.95;8.82;;;;;;;26.65;49.11;98990.81;4117784;28;20536;-66
2022/08/16 04:03:30;;;;;;;9.98;8.27;;;;;;;27.06;48.24;98993.22;4121485;28;20562;-66
2022/08/16 04:05:46;;;;;;;9.25;8.35;;;;;;;27.02;48.53;98992.16;4120773;28;20356;-66
2022/08/16 04:07:47;;;;;;;10.27;9.03;;;;;;;26.84;48.90;98994.50;4120582;28;20230;-66
2022/08/16 04:09:51;;;;;;;11.00;8.57;;;;;;;26.74;48.68;99002.75;4125207;28;20735;-66
2022/08/16 04:11:53;;;;;;;12.43;9.70;;;;;;;26.63;48.91;98993.03;4128880;28;20244;-66
2022/08/16 04:13:54;;;;;;;10.55;8.77;;;;;;;26.51;49.12;98999.63;4121737;28;20290;-66
2022/08/16 04:16:11;;;;;;;10.35;8.35;;;;;;;26.20;49.26;99007.19;4112913;28;20257;-66
2022/08/16 04:18:29;;;;;;;8.70;7.68;;;;;;;25.90;49.86;99002.69;4124093;28;20246;-66
2022/08/16 04:20:31;;;;;;;9.57;7.57;;;;;;;25.84;49.92;99003.78;4120607;28;20930;-66
2022/08/16 04:22:37;;;;;;;11.52;7.78;;;;;;;26.18;49.16;99000.38;4122436;28;20313;-66
2022/08/16 04:24:40;;;;;;;9.20;7.85;;;;;;;26.40;48.14;99008.94;4124255;28;20340;-66
2022/08/16 04:26:54;;;;;;;10.20;7.80;;;;;;;26.36;48.51;99013.34;4121521;28;20241;-66
2022/08/16 04:28:59;;;;;;;8.00;7.22;;;;;;;26.18;49.33;99011.28;4121787;28;20595;-66
2022/08/16 04:31:19;;;;;;;10.00;8.65;;;;;;;26.12;49.46;99011.31;4125815;28;20237;-66
2022/08/16 04:33:21;;;;;;;9.70;7.73;;;;;;;26.09;49.65;99019.22;4125848;28;20774;-66
2022/08/16 04:35:28;;;;;;;8.53;7.63;;;;;;;25.54;50.31;99025.41;4118298;28;20226;-66
2022/08/16 04:37:35;;;;;;;8.17;7.23;;;;;;;25.49;50.31;99013.69;4127728;28;20230;-66
2022/08/16 04:39:42;;;;;;;9.57;7.63;;;;;;;26.23;49.27;99008.50;4120795;28;20261;-66
2022/08/16 04:41:56;;;;;;;9.05;7.95;;;;;;;26.04;49.50;99013.81;4115328;28;20818;-64
2022/08/16 04:43:59;;;;;;;8.68;7.88;;;;;;;25.96;50.17;99024.19;4123814;28;20241;-64
2022/08/16 04:46:01;;;;;;;10.27;7.43;;;;;;;25.98;49.86;99023.88;4124733;28;20227;-64
2022/08/16 04:48:04;;;;;;;7.95;7.15;;;;;;;25.86;50.46;99026.91;4121084;28;20238;-64
2022/08/16 04:50:10;;;;;;;9.53;7.73;;;;;;;26.33;48.93;99022.88;4125637;28;20225;-64
2022/08/16 04:52:15;;;;;;;10.23;7.72;;;;;;;25.60;50.68;99029.72;4118541;28;20230;-63
2022/08/16 04:54:36;;;;;;;10.10;7.20;;;;;;;25.88;50.04;99030.19;4121975;28;20738;-64
2022/08/16 04:56:43;;;;;;;10.95;7.80;;;;;;;25.93;49.99;99029.31;4121814;28;20258;-64
2022/08/16 04:58:46;;;;;;;10.23;7.75;;;;;;;26.50;48.94;99036.19;4119801;28;20235;-64
2022/08/16 05:00:49;;;;;;;9.25;8.35;;;;;;;26.50;48.66;99032.59;4126362;28;20238;-66
2022/08/16 05:02:53;;;;;;;13.07;8.60;;;;;;;26.51;49.09;99037.00;4122339;28;20661;-65
2022/08/16 05:04:59;;;;;;;9.50;8.50;;;;;;;26.57;48.72;99045.94;4119420;28;20593;-65
2022/08/16 05:07:00;;;;;;;10.13;8.98;;;;;;;26.50;48.34;99049.81;4120532;28;20238;-65
2022/08/16 05:09:05;;;;;;;9.85;8.85;;;;;;;26.32;49.39;99043.06;4121139;28;20230;-65
2022/08/16 05:11:09;;;;;;;10.05;8.93;;;;;;;26.06;49.85;99042.38;4124364;28;20241;-65
2022/08/16 05:13:11;;;;;;;9.95;7.97;;;;;;;26.21;49.28;99044.22;4119697;28;20317;-65
2022/08/16 05:15:16;;;;;;;9.73;8.52;;;;;;;26.42;49.02;99044.94;4118783;28;20248;-65
2022/08/16 05:17:19;;;;;;;11.52;8.35;;;;;;;26.11;49.62;99064.16;4124423;28;20268;-65
2022/08/16 05:19:27;;;;;;;9.65;8.63;;;;;;;25.97;50.04;99054.97;4123983;28;20517;-65
2022/08/16 05:21:37;;;;;;;9.75;8.43;;;;;;;26.04;49.93;99051.94;4131620;28;20237;-65
2022/08/16 05:23:42;;;;;;;10.55;8.15;;;;;;;25.85;50.50;99057.16;4120444;28;20238;-65
2022/08/16 05:25:52;;;;;;;10.15;8.55;;;;;;;25.64;50.74;99056.38;4120036;28;20273;-65
2022/08/16 05:27:54;;;;;;;10.88;8.18;;;;;;;25.64;50.19;99061.84;4120621;28;20230;-65
2022/08/16 05:29:57;;;;;;;10.73;8.02;;;;;;;24.95;52.25;99055.88;4118633;28;20249;-65
2022/08/16 05:32:04;;;;;;;9.20;8.30;;;;;;;26.02;50.21;99037.78;4126195;28;20318;-65
2022/08/16 05:34:27;;;;;;;9.02;7.80;;;;;;;25.89;49.97;99050.84;4120625;28;20269;-65
2022/08/16 05:36:29;;;;;;;12.27;8.52;;;;;;;25.94;49.82;99055.50;4118862;28;20301;-65
2022/08/16 05:38:37;;;;;;;9.45;8.55;;;;;;;26.45;48.65;99055.25;4114758;28;20248;-65
2022/08/16 05:40:40;;;;;;;10.15;8.13;;;;;;;25.96;49.54;99069.66;4121337;28;20708;-65
2022/08/16 05:42:57;;;;;;;11.10;9.32;;;;;;;26.04;49.69;99066.34;4121508;28;20726;-65
2022/08/16 05:45:00;;;;;;;10.60;8.18;;;;;;;25.56;50.49;99068.66;4126840;28;21025;-65
2022/08/16 05:47:07;;;;;;;9.07;8.18;;;;;;;25.92;50.22;99069.38;4116927;28;20242;-65
2022/08/16 05:49:09;;;;;;;9.45;8.55;;;;;;;27.03;48.18;99054.59;4117428;28;20316;-65
2022/08/16 05:51:12;;;;;;;9.52;8.63;;;;;;;27.22;47.74;99073.03;4113610;28;20221;-65
2022/08/16 05:53:34;;;;;;;9.55;8.18;;;;;;;26.83;48.22;99085.59;4124359;28;20677;-65
2022/08/16 05:55:39;;;;;;;8.82;7.93;;;;;;;26.96;48.10;99096.94;4123141;28;20241;-65
2022/08/16 05:57:41;;;;;;;9.15;7.95;;;;;;;25.67;50.19;99100.22;4118110;28;20229;-65
2022/08/16 05:59:46;;;;;;;9.10;7.93;;;;;;;25.34;51.05;99093.41;4123201;28;20289;-65
2022/08/16 06:01:51;;;;;;;8.68;7.78;;;;;;;26.09;49.93;99079.16;4118629;28;20229;-65
2022/08/16 06:03:53;;;;;;;9.00;7.70;;;;;;;25.39;51.18;99082.56;4129581;28;20715;-65
2022/08/16 06:05:58;;;;;;;8.57;7.78;;;;;;;23.88;55.21;99079.72;4121755;28;20233;-65
2022/08/16 06:08:01;;;;;;;8.75;7.20;;;;;;;24.25;54.92;99053.56;4122086;28;20241;-65
2022/08/16 06:10:04;;;;;;;8.15;7.35;;;;;;;24.66;54.18;99054.47;4122148;28;20225;-65
2022/08/16 06:12:07;;;;;;;9.53;8.17;;;;;;;24.31;54.07;99066.91;4127261;28;20229;-65
2022/08/16 06:14:10;;;;;;;10.60;7.25;;;;;;;24.84;52.54;99080.34;4119882;28;20324;-65
2022/08/16 06:16:12;;;;;;;10.80;7.13;;;;;;;25.04;52.88;99076.84;4120146;28;20304;-65
2022/08/16 06:18:19;;;;;;;11.60;7.40;;;;;;;25.94;50.75;99085.47;4116679;28;20275;-65
2022/08/16 06:20:29;;;;;;;7.18;6.47;;;;;;;24.74;52.93;99091.19;4116800;28;20264;-65
2022/08/16 06:22:37;;;;;;;8.50;6.78;;;;;;;24.90;53.24;99089.31;4114722;28;20277;-65
2022/08/16 06:24:40;;;;;;;7.25;6.38;;;;;;;24.43;53.74;99099.28;4120727;28;20238;-65
2022/08/16 06:26:56;;;;;;;8.55;6.93;;;;;;;25.54;51.45;99087.16;4111982;28;20243;-65
2022/08/16 06:28:58;;;;;;;7.43;6.47;;;;;;;26.39;49.50;99099.19;4123336;28;20296;-66
2022/08/16 06:31:00;;;;;;;9.88;6.97;;;;;;;25.49;51.51;99098.06;4122349;28;20230;-65
2022/08/16 06:33:02;;;;;;;9.45;7.00;;;;;;;25.34;51.27;99107.00;4118907;28;20333;-65
2022/08/16 06:35:05;;;;;;;7.80;6.95;;;;;;;25.88;50.94;99092.81;4128886;28;20262;-65
2022/08/16 06:37:07;;;;;;;8.75;6.68;;;;;;;25.38;51.39;99116.31;4125925;28;20233;-66
2022/08/16 06:39:10;;;;;;;8.98;6.25;;;;;;;25.70;50.57;99110.56;4122553;28;20230;-63
2022/08/16 06:41:12;;;;;;;9.13;6.88;;;;;;;26.51;49.09;99113.31;4117303;28;21826;-67
2022/08/16 06:43:14;;;;;;;10.48;6.47;;;;;;;26.22;49.66;99110.41;4121378;28;20225;-65
2022/08/16 06:45:17;;;;;;;7.68;6.82;;;;;;;26.05;50.03;99114.31;4122710;28;20274;-65
2022/08/16 06:47:24;;;;;;;7.85;7.03;;;;;;;26.70;48.44;99100.66;4122765;28;20279;-66
2022/08/16 06:49:46;;;;;;;10.80;6.50;;;;;;;26.62;48.38;99111.34;4118340;28;20268;-65
2022/08/16 06:51:54;;;;;;;8.48;6.60;;;;;;;26.02;48.99;99114.84;4120659;28;20294;-65
2022/08/16 06:54:04;;;;;;;8.35;6.57;;;;;;;26.53;48.53;99105.69;4123050;28;20320;-65
2022/08/16 06:56:07;;;;;;;8.10;6.72;;;;;;;26.65;47.99;99111.59;4122800;28;20245;-65
2022/08/16 06:58:23;;;;;;;8.95;6.30;;;;;;;26.66;47.90;99115.16;4118480;28;20361;-65
2022/08/16 07:00:32;;;;;;;9.05;7.20;;;;;;;26.83;48.47;99109.31;4123561;28;20249;-65
2022/08/16 07:02:34;;;;;;;8.20;6.65;;;;;;;25.88;50.48;99116.50;4125000;28;20242;-65
2022/08/16 07:04:35;;;;;;;8.60;6.57;;;;;;;27.14;47.80;99085.38;4119155;28;20246;-65
2022/08/16 07:06:39;;;;;;;8.02;6.68;;;;;;;27.08;47.88;99103.72;4117566;28;20572;-65
2022/08/16 07:08:45;;;;;;;7.63;5.88;;;;;;;26.61;48.37;99120.63;4126339;28;20325;-66
2022/08/16 07:10:48;;;;;;;10.50;5.72;;;;;;;25.40;51.04;99114.94;4120318;28;20537;-65
2022/08/16 07:12:50;;;;;;;7.82;6.18;;;;;;;26.93;48.05;99094.81;4116356;28;20230;-65
2022/08/16 07:15:12;;;;;;;7.35;6.20;;;;;;;27.14;47.37;99109.94;4118854;28;20229;-65
2022/08/16 07:17:21;;;;;;;8.30;6.00;;;;;;;27.39;46.86;99110.81;4124785;28;20391;-65
2022/08/16 07:19:23;;;;;;;8.40;6.07;;;;;;;26.72;48.79;99111.28;4121418;28;20800;-65
2022/08/16 07:21:44;;;;;;;7.40;6.10;;;;;;;27.17;48.31;99111.28;4122238;28;20330;-66
2022/08/16 07:24:01;;;;;;;11.48;6.18;;;;;;;27.34;47.63;99108.13;4123840;28;20723;-65
2022/08/16 07:26:08;;;;;;;8.93;5.90;;;;;;;26.69;48.03;99126.31;4122684;28;20780;-65
2022/08/16 07:28:16;;;;;;;7.43;6.18;;;;;;;26.96;48.64;99125.06;4120733;28;21171;-64
2022/08/16 07:30:25;;;;;;;10.95;5.80;;;;;;;25.79;50.98;99122.50;4113628;28;20230;-65
2022/08/16 07:32:49;;;;;;;7.80;5.57;;;;;;;27.23;47.91;99108.22;4116161;28;20328;-65
2022/08/16 07:34:52;;;;;;;7.65;6.10;;;;;;;27.17;48.01;99117.56;4124498;28;20241;-65
2022/08/16 07:36:53;;;;;;;8.45;6.30;;;;;;;27.21;48.10;99096.78;4126946;28;20237;-65
2022/08/16 07:38:59;;;;;;;6.97;5.30;;;;;;;27.75;47.00;99103.13;4119196;28;20761;-65
2022/08/16 07:41:01;;;;;;;8.75;5.57;;;;;;;28.04;46.32;99104.16;4119018;28;20296;-65
2022/08/16 07:43:10;;;;;;;7.93;5.78;;;;;;;27.29;47.47;99116.38;4124173;28;20275;-64
2022/08/16 07:45:12;;;;;;;6.53;5.28;;;;;;;27.78;46.88;99101.72;4125154;28;20279;-65
2022/08/16 07:47:17;;;;;;;6.03;5.43;;;;;;;27.51;47.29;99113.16;4127279;28;20237;-66
2022/08/16 07:49:24;;;;;;;8.52;6.35;;;;;;;27.44;47.38;99105.31;4128677;28;20233;-66
2022/08/16 07:51:35;;;;;;;7.30;5.43;;;;;;;27.79;46.88;99098.72;4120345;28;20229;-65
2022/08/16 07:53:37;;;;;;;7.50;5.30;;;;;;;28.45;45.68;99098.22;4115704;28;20244;-65
2022/08/16 07:55:44;;;;;;;8.48;5.13;;;;;;;28.75;44.88;99110.69;4120089;28;20234;-65
2022/08/16 07:57:49;;;;;;;7.57;5.47;;;;;;;28.23;45.79;99129.66;4123905;28;20317;-65
2022/08/16 08:00:04;;;;;;;7.30;5.30;;;;;;;27.87;46.60;99130.06;4121433;28;20486;-65
2022/08/16 08:02:19;;;;;;;6.43;5.47;;;;;;;27.88;46.66;99133.59;4130829;28;20225;-66
2022/08/16 08:04:21;;;;;;;6.07;5.47;;;;;;;27.76;47.07;99134.78;4118939;28;20237;-65
2022/08/16 08:06:27;;;;;;;6.82;5.82;;;;;;;28.81;44.96;99128.63;4123768;28;20491;-65
2022/08/16 08:08:29;;;;;;;7.28;5.10;;;;;;;28.33;46.36;99142.41;4123656;28;20233;-65
2022/08/16 08:10:51;;;;;;;6.47;5.60;;;;;;;28.19;46.37;99139.53;4124164;28;20253;-66
2022/08/16 08:12:53;;;;;;;8.43;5.45;;;;;;;28.23;45.85;99135.13;4124170;28;20237;-65
2022/08/16 08:14:59;;;;;;;6.60;5.25;;;;;;;28.73;45.18;99127.41;4122001;28;20268;-66
2022/08/16 08:17:04;;;;;;;6.90;5.60;;;;;;;28.34;45.76;99139.38;4121635;28;20757;-65
2022/08/16 08:19:11;;;;;;;6.05;5.45;;;;;;;28.82;44.71;99127.53;4120906;28;20465;-65
2022/08/16 08:21:12;;;;;;;9.02;5.22;;;;;;;28.26;46.14;99134.56;4127038;28;20308;-65
2022/08/16 08:23:14;;;;;;;7.13;5.60;;;;;;;28.03;46.05;99127.94;4118499;28;20793;-65
2022/08/16 08:25:17;;;;;;;7.10;5.07;;;;;;;28.24;46.18;99123.09;4119739;28;20238;-65
2022/08/16 08:27:19;;;;;;;5.78;5.18;;;;;;;28.07;46.23;99123.53;4119499;28;20266;-65
2022/08/16 08:29:24;;;;;;;7.50;5.00;;;;;;;28.09;45.88;99120.50;4127294;28;20233;-65
2022/08/16 08:31:41;;;;;;;7.10;5.53;;;;;;;28.36;45.24;99125.41;4124709;28;20234;-65
2022/08/16 08:33:42;;;;;;;7.78;5.45;;;;;;;28.57;45.10;99120.47;4124737;28;20348;-66
2022/08/16 08:35:56;;;;;;;8.18;5.25;;;;;;;28.48;45.71;99117.59;4115899;28;20234;-65
2022/08/16 08:38:01;;;;;;;7.00;5.22;;;;;;;29.02;44.23;99107.25;4118256;28;20743;-66
2022/08/16 08:40:09;;;;;;;8.25;4.97;;;;;;;26.97;48.13;99118.47;4120069;28;20710;-65
2022/08/16 08:42:11;;;;;;;8.25;5.28;;;;;;;27.32;47.49;99113.06;4116931;28;20241;-65
2022/08/16 08:44:13;;;;;;;8.57;5.65;;;;;;;27.88;46.82;99114.47;4126439;28;20292;-65
2022/08/16 08:46:31;;;;;;;5.97;5.30;;;;;;;28.30;45.23;99116.44;4120349;28;20238;-66
2022/08/16 08:48:37;;;;;;;8.60;5.47;;;;;;;28.20;46.16;99113.03;4124311;28;20264;-65
2022/08/16 08:50:44;;;;;;;7.65;5.20;;;;;;;28.10;45.95;99113.94;4123877;28;20232;-65
2022/08/16 08:52:52;;;;;;;8.40;5.78;;;;;;;28.52;44.48;99112.34;4124035;28;20317;-65
2022/08/16 08:54:54;;;;;;;8.55;5.38;;;;;;;28.72;44.01;99133.97;4118978;28;20238;-66
2022/08/16 08:56:56;;;;;;;9.60;5.57;;;;;;;29.07;43.86;99128.28;4107359;28;20270;-66
2022/08/16 08:58:57;;;;;;;7.88;5.63;;;;;;;28.24;44.82;99130.47;4122574;28;20522;-65
2022/08/16 09:01:08;;;;;;;5.95;4.95;;;;;;;28.68;43.93;99143.03;4118032;28;20240;-65
2022/08/16 09:03:09;;;;;;;7.28;5.45;;;;;;;28.39;44.46;99143.13;4113525;28;20222;-64
2022/08/16 09:05:13;;;;;;;6.38;5.43;;;;;;;28.22;44.82;99144.44;4107995;28;20231;-65
2022/08/16 09:07:16;;;;;;;7.78;5.80;;;;;;;28.80;44.29;99135.22;4115622;28;20245;-65
2022/08/16 09:09:20;;;;;;;10.80;5.32;;;;;;;28.11;44.60;99146.44;4117126;28;20423;-66
2022/08/16 09:11:22;;;;;;;6.82;5.40;;;;;;;27.36;46.63;99135.97;4113497;28;20235;-66
2022/08/16 09:13:43;;;;;;;9.10;4.90;;;;;;;28.24;45.26;99134.03;4119995;28;20241;-66
2022/08/16 09:15:49;;;;;;;8.10;5.00;;;;;;;27.72;45.74;99138.38;4120217;28;20238;-65
2022/08/16 09:17:55;;;;;;;9.82;5.63;;;;;;;27.33;46.04;99131.91;4112062;28;20770;-65
2022/08/16 09:19:57;;;;;;;6.10;4.75;;;;;;;28.14;45.06;99123.16;4116714;28;20286;-65
2022/08/16 09:22:04;;;;;;;7.63;5.70;;;;;;;29.17;43.38;99119.88;4119746;28;20480;-65
2022/08/16 09:24:20;;;;;;;7.70;5.35;;;;;;;29.75;42.40;99145.25;4122901;28;20233;-67
2022/08/16 09:26:42;;;;;;;5.75;5.10;;;;;;;29.80;42.04;99159.66;4111137;28;20535;-66
2022/08/16 09:28:47;;;;;;;9.07;5.78;;;;;;;29.96;41.92;99159.38;4111211;28;20239;-65
2022/08/16 09:31:09;;;;;;;8.50;5.72;;;;;;;28.57;43.90;99153.28;4116519;28;20308;-66
2022/08/16 09:33:17;;;;;;;7.82;5.20;;;;;;;28.89;44.04;99146.31;4119232;28;20749;-66
2022/08/16 09:35:21;;;;;;;6.43;5.57;;;;;;;29.04;43.61;99135.13;4122166;28;20260;-64
2022/08/16 09:37:26;;;;;;;11.13;5.93;;;;;;;29.50;42.22;99138.28;4121360;28;20230;-64
2022/08/16 09:39:30;;;;;;;9.80;5.63;;;;;;;28.61;43.69;99150.78;4114293;28;20246;-65
2022/08/16 09:41:43;;;;;;;8.52;5.50;;;;;;;30.13;41.81;99126.69;4117214;28;20680;-65
2022/08/16 09:43:55;;;;;;;8.15;5.40;;;;;;;29.41;43.01;99143.63;4124612;28;20238;-65
2022/08/16 09:46:06;;;;;;;6.90;5.25;;;;;;;29.50;42.99;99141.81;4111225;28;20305;-65
2022/08/16 09:48:28;;;;;;;7.47;5.50;;;;;;;29.99;42.02;99131.34;4117737;28;20227;-65
2022/08/16 09:50:45;;;;;;;7.65;5.60;;;;;;;30.21;41.48;99138.88;4120711;28;20238;-65
2022/08/16 09:52:47;;;;;;;8.25;5.20;;;;;;;29.73;42.45;99142.81;4122279;28;20304;-65
2022/08/16 09:54:48;;;;;;;10.80;5.00;;;;;;;29.71;42.89;99128.56;4121810;28;20245;-65
2022/08/16 09:56:51;;;;;;;7.90;4.90;;;;;;;29.15;43.02;99129.50;4109816;28;20291;-65